Time;durP1;ratioP1;P1;durP2;ratioP2;P2;SDS_P1;SDS_P2;PMS_P1;PMS_P2;Temp;Humidity;BMP_temperature;BMP_pressure;BME280_temperature;BME280_humidity;BME280_pressure;Samples;Min_cycle;Max_cycle;Signal;HPM_P1;HPM_P2
2021/05/09 00:01:23;;;;;;;4.20;0.60;;;12.10;90.50;;;;;;4408822;32;20061;-64
2021/05/09 00:03:49;;;;;;;0.40;0.40;;;12.10;90.50;;;;;;4410183;32;20070;-64
2021/05/09 00:06:14;;;;;;;5.28;0.62;;;12.10;90.60;;;;;;4406785;32;20130;-64
2021/05/09 00:08:40;;;;;;;0.40;0.40;;;12.10;90.50;;;;;;4399196;32;20113;-64
2021/05/09 00:11:06;;;;;;;1.10;0.73;;;12.10;90.80;;;;;;4401874;32;20066;-64
2021/05/09 00:13:31;;;;;;;0.55;0.50;;;12.10;90.90;;;;;;4414131;32;20571;-63
2021/05/09 00:15:58;;;;;;;0.43;0.43;;;12.10;91.00;;;;;;4404167;32;20073;-64
2021/05/09 00:18:24;;;;;;;0.40;0.40;;;12.10;91.10;;;;;;4407973;32;20097;-64
2021/05/09 00:20:49;;;;;;;4.15;1.45;;;12.00;90.90;;;;;;4398041;32;20066;-63
2021/05/09 00:23:15;;;;;;;0.52;0.47;;;12.00;90.90;;;;;;4409447;32;20066;-62
2021/05/09 00:25:40;;;;;;;0.40;0.40;;;12.00;91.40;;;;;;4405525;32;20078;-64
2021/05/09 00:28:06;;;;;;;1.15;0.75;;;12.00;91.50;;;;;;4401231;32;20065;-64
2021/05/09 00:30:31;;;;;;;0.43;0.43;;;12.00;91.60;;;;;;4409413;32;20083;-64
2021/05/09 00:32:57;;;;;;;0.45;0.45;;;12.00;91.40;;;;;;4406692;32;20086;-64
2021/05/09 00:35:22;;;;;;;0.30;0.30;;;12.10;91.30;;;;;;4398461;32;20074;-64
2021/05/09 00:37:48;;;;;;;0.50;0.50;;;12.00;91.70;;;;;;4396919;32;20066;-64
2021/05/09 00:40:13;;;;;;;0.50;0.50;;;12.00;92.40;;;;;;4399077;32;20445;-64
2021/05/09 00:42:39;;;;;;;0.50;0.50;;;12.00;92.20;;;;;;4398707;32;20166;-64
2021/05/09 00:45:06;;;;;;;0.40;0.40;;;11.90;91.90;;;;;;4412975;32;20081;-64
2021/05/09 00:47:32;;;;;;;0.37;0.37;;;11.90;92.00;;;;;;4412581;32;20519;-64
2021/05/09 00:49:57;;;;;;;0.60;0.60;;;12.00;92.10;;;;;;4407021;32;20158;-64
2021/05/09 00:52:25;;;;;;;0.40;0.40;;;12.00;92.40;;;;;;4398930;32;20074;-64
2021/05/09 00:54:55;;;;;;;0.50;0.50;;;11.90;92.40;;;;;;4398369;32;20058;-64
2021/05/09 00:57:23;;;;;;;0.35;0.35;;;11.90;92.10;;;;;;4396955;32;20528;-64
2021/05/09 00:59:51;;;;;;;1.08;0.73;;;12.00;92.40;;;;;;4398510;32;20079;-64
2021/05/09 01:02:17;;;;;;;1.95;1.15;;;12.00;92.60;;;;;;4404546;32;20395;-64
2021/05/09 01:04:45;;;;;;;0.50;0.50;;;12.00;92.40;;;;;;4393365;32;20058;-63
2021/05/09 01:07:13;;;;;;;0.55;0.55;;;12.10;92.60;;;;;;4415873;32;20065;-64
2021/05/09 01:09:38;;;;;;;0.50;0.50;;;12.10;92.40;;;;;;4417252;32;20081;-64
2021/05/09 01:12:04;;;;;;;0.40;0.40;;;12.10;92.60;;;;;;4414375;32;20061;-65
2021/05/09 01:14:30;;;;;;;0.50;0.50;;;12.10;92.40;;;;;;4413428;32;20070;-63
2021/05/09 01:16:55;;;;;;;0.43;0.43;;;12.10;92.40;;;;;;4416947;32;20459;-65
2021/05/09 01:19:21;;;;;;;0.85;0.85;;;12.10;93.90;;;;;;4405434;32;20529;-62
2021/05/09 01:21:47;;;;;;;0.57;0.52;;;12.10;93.60;;;;;;4403532;32;20074;-64
2021/05/09 01:24:13;;;;;;;2.08;1.15;;;12.10;93.10;;;;;;4414519;32;20099;-63
2021/05/09 01:26:38;;;;;;;0.50;0.50;;;12.00;92.60;;;;;;4406706;32;20061;-65
2021/05/09 01:29:04;;;;;;;0.75;0.75;;;12.10;93.20;;;;;;4411704;32;20062;-63
2021/05/09 01:31:29;;;;;;;0.60;0.60;;;12.10;93.10;;;;;;4409403;32;20098;-64
2021/05/09 01:33:55;;;;;;;0.52;0.52;;;12.00;93.00;;;;;;4410005;32;20066;-63
2021/05/09 01:36:20;;;;;;;0.52;0.45;;;12.00;93.20;;;;;;4403830;32;20130;-63
2021/05/09 01:38:46;;;;;;;0.50;0.50;;;12.00;93.30;;;;;;4403556;32;20067;-63
2021/05/09 01:41:11;;;;;;;0.88;0.80;;;12.00;93.30;;;;;;4404107;32;20612;-65
2021/05/09 01:43:37;;;;;;;0.60;0.60;;;12.00;93.90;;;;;;4409513;32;20058;-63
2021/05/09 01:46:03;;;;;;;0.50;0.50;;;12.00;93.60;;;;;;4417995;32;20078;-63
2021/05/09 01:48:29;;;;;;;4.22;0.90;;;11.90;93.70;;;;;;4417189;32;20066;-63
2021/05/09 01:50:55;;;;;;;0.45;0.45;;;11.90;93.80;;;;;;4415392;32;20065;-64
2021/05/09 01:53:21;;;;;;;0.45;0.45;;;12.00;94.00;;;;;;4418488;32;20130;-63
2021/05/09 01:55:46;;;;;;;0.77;0.77;;;12.00;94.70;;;;;;4418246;32;20068;-63
2021/05/09 01:58:12;;;;;;;1.12;0.60;;;12.00;94.50;;;;;;4418949;32;20075;-63
2021/05/09 02:00:37;;;;;;;0.95;0.70;;;12.00;94.30;;;;;;4414490;32;20057;-63
2021/05/09 02:03:03;;;;;;;14.82;2.30;;;12.00;94.40;;;;;;4411822;32;20077;-63
2021/05/09 02:05:28;;;;;;;0.60;0.60;;;11.90;94.70;;;;;;4416403;32;20594;-63
2021/05/09 02:07:54;;;;;;;0.30;0.30;;;11.90;94.80;;;;;;4402590;32;20078;-64
2021/05/09 02:10:20;;;;;;;1.02;0.70;;;11.90;95.00;;;;;;4403723;32;20065;-64
2021/05/09 02:12:45;;;;;;;1.08;1.00;;;11.80;95.20;;;;;;4402927;32;20599;-63
2021/05/09 02:15:11;;;;;;;0.52;0.52;;;11.70;95.40;;;;;;4409367;32;20132;-64
2021/05/09 02:17:36;;;;;;;1.42;0.90;;;11.70;95.80;;;;;;4402802;32;20085;-63
2021/05/09 02:20:07;;;;;;;0.40;0.40;;;11.70;95.80;;;;;;4415088;32;20463;-63
2021/05/09 02:22:33;;;;;;;1.87;1.02;;;11.80;96.20;;;;;;4409949;32;20066;-63
2021/05/09 02:24:59;;;;;;;1.12;0.77;;;11.70;96.20;;;;;;4391340;32;20082;-63
2021/05/09 02:27:24;;;;;;;0.55;0.55;;;11.70;96.40;;;;;;4415219;32;20057;-64
2021/05/09 02:29:49;;;;;;;0.50;0.50;;;11.70;96.60;;;;;;4406288;32;20131;-64
2021/05/09 02:32:15;;;;;;;0.40;0.40;;;11.70;96.60;;;;;;4408115;32;20062;-64
2021/05/09 02:34:40;;;;;;;0.45;0.45;;;11.70;96.80;;;;;;4412533;32;20082;-64
2021/05/09 02:37:06;;;;;;;1.15;1.05;;;11.70;96.90;;;;;;4415183;32;20073;-64
2021/05/09 02:39:32;;;;;;;0.60;0.60;;;11.70;97.20;;;;;;4415806;32;20429;-63
2021/05/09 02:41:58;;;;;;;0.60;0.60;;;11.70;97.30;;;;;;4415402;32;20066;-64
2021/05/09 02:44:24;;;;;;;0.57;0.57;;;11.70;97.50;;;;;;4405585;32;20070;-64
2021/05/09 02:46:50;;;;;;;0.52;0.52;;;11.70;97.40;;;;;;4399815;32;20553;-63
2021/05/09 02:49:15;;;;;;;0.75;0.70;;;11.60;97.80;;;;;;4401964;32;20058;-63
2021/05/09 02:51:41;;;;;;;0.50;0.50;;;11.50;97.90;;;;;;4399013;32;20062;-62
2021/05/09 02:54:06;;;;;;;0.50;0.50;;;11.50;98.20;;;;;;4399730;32;20074;-63
2021/05/09 02:56:32;;;;;;;1.77;0.65;;;11.50;98.30;;;;;;4400884;32;20349;-63
2021/05/09 02:58:57;;;;;;;0.50;0.50;;;11.50;98.40;;;;;;4401184;32;20070;-63
2021/05/09 03:01:23;;;;;;;0.47;0.47;;;11.50;98.50;;;;;;4405238;32;20396;-63
2021/05/09 03:03:49;;;;;;;0.37;0.37;;;11.50;98.30;;;;;;4403968;32;20066;-63
2021/05/09 03:06:14;;;;;;;0.90;0.80;;;11.50;98.70;;;;;;4406180;32;20125;-64
2021/05/09 03:08:40;;;;;;;0.45;0.45;;;11.50;98.80;;;;;;4413028;32;20109;-63
2021/05/09 03:11:05;;;;;;;2.25;0.70;;;11.50;98.70;;;;;;4412325;32;20054;-63
2021/05/09 03:13:31;;;;;;;0.47;0.47;;;11.50;98.80;;;;;;4401742;32;20108;-63
2021/05/09 03:15:58;;;;;;;0.50;0.50;;;11.40;99.10;;;;;;4405906;32;20061;-64
2021/05/09 03:18:23;;;;;;;0.55;0.52;;;11.40;99.20;;;;;;4394589;32;20392;-64
2021/05/09 03:20:49;;;;;;;0.32;0.32;;;11.40;99.20;;;;;;4399689;32;20146;-63
2021/05/09 03:23:14;;;;;;;1.00;0.70;;;11.40;99.30;;;;;;4408224;32;20062;-62
2021/05/09 03:25:40;;;;;;;1.23;0.65;;;11.30;99.50;;;;;;4405119;32;20109;-65
2021/05/09 03:28:05;;;;;;;0.43;0.43;;;11.30;99.50;;;;;;4401852;32;20557;-64
2021/05/09 03:30:31;;;;;;;0.40;0.40;;;11.40;99.50;;;;;;4409736;32;20058;-65
2021/05/09 03:32:56;;;;;;;0.82;0.82;;;11.30;99.80;;;;;;4407445;32;20066;-62
2021/05/09 03:35:22;;;;;;;0.62;0.62;;;11.20;99.90;;;;;;4398993;32;20057;-63
2021/05/09 03:37:48;;;;;;;0.40;0.40;;;11.10;99.90;;;;;;4398989;32;20138;-65
2021/05/09 03:40:14;;;;;;;0.52;0.50;;;11.10;99.90;;;;;;4400038;32;20070;-64
2021/05/09 03:42:40;;;;;;;1.25;1.12;;;11.00;99.90;;;;;;4398935;32;20073;-63
2021/05/09 03:45:06;;;;;;;0.75;0.57;;;11.00;99.90;;;;;;4398579;32;20433;-64
2021/05/09 03:47:32;;;;;;;0.50;0.50;;;10.90;99.90;;;;;;4400169;32;20125;-63
2021/05/09 03:49:58;;;;;;;1.87;0.73;;;10.90;99.90;;;;;;4401251;32;20057;-64
2021/05/09 03:52:25;;;;;;;0.50;0.50;;;10.90;99.90;;;;;;4398598;32;20062;-64
2021/05/09 03:54:51;;;;;;;0.50;0.50;;;10.90;99.90;;;;;;4385633;32;20572;-64
2021/05/09 03:57:16;;;;;;;0.50;0.50;;;11.00;99.90;;;;;;4399794;32;20058;-65
2021/05/09 03:59:42;;;;;;;0.50;0.50;;;11.00;99.90;;;;;;4398225;32;20109;-64
2021/05/09 04:02:08;;;;;;;0.40;0.40;;;10.90;99.90;;;;;;4404882;32;20061;-64
2021/05/09 04:04:33;;;;;;;0.45;0.45;;;10.90;99.90;;;;;;4403687;32;20625;-63
2021/05/09 04:06:59;;;;;;;0.30;0.30;;;11.00;99.90;;;;;;4410613;32;20069;-63
2021/05/09 04:09:24;;;;;;;2.12;0.73;;;10.90;99.90;;;;;;4413378;32;20135;-63
2021/05/09 04:11:50;;;;;;;8.93;1.55;;;10.90;99.90;;;;;;4411113;32;20062;-63
2021/05/09 04:14:16;;;;;;;0.77;0.68;;;10.90;99.90;;;;;;4410977;32;20062;-63
2021/05/09 04:16:42;;;;;;;0.55;0.52;;;10.90;99.90;;;;;;4408800;32;20066;-62
2021/05/09 04:19:07;;;;;;;0.37;0.37;;;10.90;99.90;;;;;;4403104;32;20125;-64
2021/05/09 04:21:32;;;;;;;0.47;0.47;;;11.00;99.90;;;;;;4399423;32;20059;-63
2021/05/09 04:23:58;;;;;;;0.50;0.50;;;10.90;99.90;;;;;;4408372;32;20065;-61
2021/05/09 04:26:23;;;;;;;0.95;0.60;;;10.90;99.90;;;;;;4405276;32;20062;-63
2021/05/09 04:28:49;;;;;;;1.33;0.70;;;10.80;99.90;;;;;;4406544;32;20062;-64
2021/05/09 04:31:15;;;;;;;1.73;0.60;;;10.90;99.90;;;;;;4392002;32;20066;-64
2021/05/09 04:33:40;;;;;;;1.65;0.68;;;10.90;99.90;;;;;;4405882;32;20054;-63
2021/05/09 04:36:06;;;;;;;0.40;0.40;;;11.00;99.90;;;;;;4397670;32;20070;-63
2021/05/09 04:38:31;;;;;;;0.37;0.37;;;11.00;99.90;;;;;;4396976;32;20081;-61
2021/05/09 04:40:57;;;;;;;0.45;0.45;;;11.10;99.90;;;;;;4398545;32;20057;-64
2021/05/09 04:43:23;;;;;;;1.55;0.95;;;11.10;99.90;;;;;;4402796;32;20077;-63
2021/05/09 04:45:51;;;;;;;0.68;0.68;;;11.10;99.90;;;;;;4413451;32;20074;-63
2021/05/09 04:48:16;;;;;;;0.30;0.30;;;11.10;99.90;;;;;;4413232;32;20180;-63
2021/05/09 04:50:43;;;;;;;0.57;0.57;;;11.20;99.90;;;;;;4410266;32;20057;-63
2021/05/09 04:53:30;;;;;;;0.35;0.35;;;11.20;99.90;;;;;;4399987;32;20065;-63
2021/05/09 04:55:57;;;;;;;0.60;0.60;;;11.20;99.90;;;;;;4412548;32;20062;-63
2021/05/09 04:58:24;;;;;;;0.30;0.30;;;11.40;99.90;;;;;;4413290;32;20078;-63
2021/05/09 05:00:53;;;;;;;0.55;0.55;;;11.40;99.90;;;;;;4412695;32;20074;-64
2021/05/09 05:03:19;;;;;;;1.23;0.95;;;11.50;99.90;;;;;;4411081;32;20062;-63
2021/05/09 05:05:45;;;;;;;0.50;0.50;;;11.50;99.90;;;;;;4389761;32;20075;-64
2021/05/09 05:08:10;;;;;;;0.30;0.30;;;11.50;99.90;;;;;;4413044;32;20435;-64
2021/05/09 05:10:36;;;;;;;0.62;0.62;;;11.60;99.90;;;;;;4412107;32;20130;-64
2021/05/09 05:13:01;;;;;;;0.32;0.32;;;11.70;99.90;;;;;;4411759;32;20441;-64
2021/05/09 05:15:27;;;;;;;1.25;1.15;;;11.70;99.90;;;;;;4404543;32;20074;-64
2021/05/09 05:17:52;;;;;;;0.40;0.40;;;11.80;99.90;;;;;;4410069;32;20087;-64
2021/05/09 05:20:18;;;;;;;0.50;0.50;;;12.00;99.90;;;;;;4397867;32;20113;-64
2021/05/09 05:22:44;;;;;;;0.40;0.40;;;12.20;99.90;;;;;;4404217;32;20499;-64
2021/05/09 05:25:10;;;;;;;0.40;0.40;;;12.30;99.90;;;;;;4406838;32;20066;-63
2021/05/09 05:27:35;;;;;;;1.20;0.75;;;12.40;99.90;;;;;;4398463;32;20070;-62
2021/05/09 05:30:01;;;;;;;1.02;0.65;;;12.60;99.90;;;;;;4408683;32;20066;-64
2021/05/09 05:32:26;;;;;;;0.43;0.43;;;12.70;99.90;;;;;;4406597;32;20472;-63
2021/05/09 05:34:52;;;;;;;0.37;0.37;;;12.70;99.90;;;;;;4401678;32;20078;-64
2021/05/09 05:37:17;;;;;;;0.50;0.50;;;12.70;99.90;;;;;;4397924;32;20067;-63
2021/05/09 05:39:43;;;;;;;0.30;0.30;;;12.80;99.90;;;;;;4399200;32;20087;-63
2021/05/09 05:42:08;;;;;;;0.40;0.40;;;12.90;99.90;;;;;;4398954;32;20062;-63
2021/05/09 05:44:34;;;;;;;0.60;0.60;;;12.90;99.90;;;;;;4409574;32;20496;-64
2021/05/09 05:47:00;;;;;;;0.30;0.30;;;13.00;99.90;;;;;;4413875;32;20066;-63
2021/05/09 05:49:25;;;;;;;0.32;0.32;;;13.10;99.90;;;;;;4411093;32;20081;-64
2021/05/09 05:51:50;;;;;;;0.40;0.40;;;13.10;99.90;;;;;;4416265;32;20074;-63
2021/05/09 05:54:16;;;;;;;0.50;0.50;;;13.30;99.90;;;;;;4415631;32;20451;-63
2021/05/09 05:56:41;;;;;;;0.50;0.50;;;13.40;99.90;;;;;;4415811;32;20062;-64
2021/05/09 05:59:07;;;;;;;0.40;0.40;;;13.50;99.90;;;;;;4415726;32;20073;-64
2021/05/09 06:01:33;;;;;;;0.60;0.60;;;13.60;99.90;;;;;;4410493;32;20065;-63
2021/05/09 06:03:58;;;;;;;0.40;0.40;;;13.50;99.90;;;;;;4411268;32;20461;-63
2021/05/09 06:06:23;;;;;;;0.40;0.40;;;13.60;99.90;;;;;;4407864;32;20119;-64
2021/05/09 06:08:52;;;;;;;0.50;0.50;;;13.60;99.90;;;;;;4401707;32;20550;-63
2021/05/09 06:11:18;;;;;;;0.30;0.30;;;13.60;99.90;;;;;;4406493;32;20112;-63
2021/05/09 06:13:43;;;;;;;0.30;0.30;;;13.70;99.90;;;;;;4413682;32;20455;-64
2021/05/09 06:16:09;;;;;;;0.45;0.45;;;13.70;99.90;;;;;;4409391;32;20082;-63
2021/05/09 06:18:36;;;;;;;0.52;0.52;;;13.80;99.90;;;;;;4407024;32;20434;-63
2021/05/09 06:21:01;;;;;;;0.70;0.70;;;13.90;99.90;;;;;;4400498;32;20578;-63
2021/05/09 06:23:28;;;;;;;0.50;0.50;;;13.90;99.90;;;;;;4410640;32;20112;-61
2021/05/09 06:25:54;;;;;;;0.25;0.25;;;13.90;99.90;;;;;;4406892;32;20070;-63
2021/05/09 06:28:21;;;;;;;2.17;0.85;;;14.00;99.90;;;;;;4404056;32;20074;-63
2021/05/09 06:30:47;;;;;;;0.30;0.30;;;14.00;99.90;;;;;;4398062;32;20057;-62
2021/05/09 06:33:12;;;;;;;0.40;0.40;;;14.10;99.90;;;;;;4406251;32;20083;-64
2021/05/09 06:35:39;;;;;;;0.40;0.40;;;14.20;99.90;;;;;;4400293;32;20440;-64
2021/05/09 06:38:07;;;;;;;0.47;0.47;;;14.30;99.90;;;;;;4399358;32;20542;-63
2021/05/09 06:40:34;;;;;;;0.40;0.40;;;14.40;99.90;;;;;;4401017;32;20062;-64
2021/05/09 06:43:01;;;;;;;0.40;0.40;;;14.50;99.80;;;;;;4400842;32;20055;-64
2021/05/09 06:45:28;;;;;;;0.52;0.50;;;14.50;99.90;;;;;;4416366;32;20073;-64
2021/05/09 06:47:56;;;;;;;0.32;0.32;;;14.60;99.90;;;;;;4415383;32;20074;-64
2021/05/09 06:50:22;;;;;;;0.50;0.50;;;14.60;99.90;;;;;;4412684;32;20061;-62
2021/05/09 06:52:48;;;;;;;0.40;0.40;;;14.70;99.90;;;;;;4401984;32;20071;-62
2021/05/09 06:55:13;;;;;;;1.42;0.37;;;14.70;99.90;;;;;;4415970;32;20065;-64
2021/05/09 06:57:40;;;;;;;0.80;0.62;;;14.80;99.90;;;;;;4414545;32;20121;-64
2021/05/09 07:00:07;;;;;;;2.70;0.90;;;14.80;99.90;;;;;;4400100;32;20120;-64
2021/05/09 07:02:33;;;;;;;0.40;0.40;;;14.80;99.90;;;;;;4407212;32;20460;-64
2021/05/09 07:04:58;;;;;;;0.68;0.68;;;14.90;99.90;;;;;;4412351;32;20082;-64
2021/05/09 07:07:24;;;;;;;0.35;0.35;;;15.00;99.90;;;;;;4399812;32;20079;-63
2021/05/09 07:09:49;;;;;;;0.47;0.47;;;15.20;99.90;;;;;;4401394;32;20459;-64
2021/05/09 07:12:15;;;;;;;0.43;0.43;;;15.30;99.60;;;;;;4404100;32;20071;-64
2021/05/09 07:14:40;;;;;;;0.30;0.30;;;15.50;99.50;;;;;;4407175;32;20077;-63
2021/05/09 07:17:06;;;;;;;0.32;0.32;;;15.60;99.60;;;;;;4401177;32;20062;-63
2021/05/09 07:19:32;;;;;;;0.80;0.62;;;15.80;99.60;;;;;;4412289;32;20082;-63
2021/05/09 07:22:00;;;;;;;0.40;0.40;;;16.00;99.30;;;;;;4412738;32;20058;-62
2021/05/09 07:24:25;;;;;;;0.40;0.40;;;16.20;98.50;;;;;;4404272;32;20117;-63
2021/05/09 07:26:51;;;;;;;0.40;0.40;;;16.30;98.80;;;;;;4411576;32;20054;-63
2021/05/09 07:29:16;;;;;;;0.40;0.40;;;16.30;98.60;;;;;;4406977;32;20149;-63
2021/05/09 07:31:42;;;;;;;0.30;0.30;;;16.30;98.00;;;;;;4407684;32;20078;-63
2021/05/09 07:34:10;;;;;;;0.70;0.50;;;16.40;98.70;;;;;;4407705;32;20141;-63
2021/05/09 07:36:38;;;;;;;0.28;0.28;;;16.50;98.40;;;;;;4412955;32;20125;-63
2021/05/09 07:39:05;;;;;;;0.95;0.93;;;16.50;98.60;;;;;;4413091;32;20065;-63
2021/05/09 07:41:30;;;;;;;0.37;0.37;;;16.60;98.20;;;;;;4414324;32;20279;-64
2021/05/09 07:43:56;;;;;;;0.40;0.40;;;16.60;98.20;;;;;;4408585;32;20147;-64
2021/05/09 07:46:21;;;;;;;0.45;0.45;;;16.60;98.30;;;;;;4399755;32;20531;-64
2021/05/09 07:48:47;;;;;;;1.15;0.60;;;16.80;98.10;;;;;;4399996;32;20121;-64
2021/05/09 07:51:13;;;;;;;0.40;0.40;;;16.90;97.90;;;;;;4399007;32;20058;-63
2021/05/09 07:53:38;;;;;;;0.40;0.40;;;17.00;97.90;;;;;;4400595;32;20081;-64
2021/05/09 07:56:04;;;;;;;0.37;0.37;;;17.10;97.70;;;;;;4398874;32;20070;-64
2021/05/09 07:58:31;;;;;;;0.43;0.43;;;17.10;97.60;;;;;;4399023;32;20061;-64
2021/05/09 08:01:01;;;;;;;0.50;0.50;;;17.30;97.50;;;;;;4405098;32;20654;-63
2021/05/09 08:03:26;;;;;;;1.45;0.77;;;17.30;97.60;;;;;;4392387;32;20062;-64
2021/05/09 08:05:51;;;;;;;0.30;0.30;;;17.50;97.10;;;;;;4404940;32;20070;-63
2021/05/09 08:08:17;;;;;;;3.87;0.43;;;17.60;96.80;;;;;;4413817;32;20064;-64
2021/05/09 08:10:42;;;;;;;0.40;0.40;;;17.70;96.80;;;;;;4411586;32;20531;-64
2021/05/09 08:13:11;;;;;;;0.68;0.45;;;17.80;96.60;;;;;;4411598;32;20121;-63
2021/05/09 08:15:36;;;;;;;0.30;0.30;;;17.90;96.30;;;;;;4405116;32;20361;-63
2021/05/09 08:18:02;;;;;;;0.60;0.60;;;18.00;96.50;;;;;;4410250;32;20065;-62
2021/05/09 08:20:28;;;;;;;0.32;0.32;;;18.10;95.60;;;;;;4397754;32;20119;-63
2021/05/09 08:22:54;;;;;;;0.40;0.40;;;18.20;95.80;;;;;;4392520;32;20062;-64
2021/05/09 08:25:20;;;;;;;1.55;0.40;;;18.30;95.50;;;;;;4406190;32;20094;-63
2021/05/09 08:27:46;;;;;;;0.40;0.40;;;18.40;95.30;;;;;;4386923;32;20061;-64
2021/05/09 08:30:13;;;;;;;0.43;0.43;;;18.50;95.20;;;;;;4396003;32;20062;-64
2021/05/09 08:32:39;;;;;;;0.40;0.40;;;18.50;95.20;;;;;;4407759;32;20070;-62
2021/05/09 08:35:06;;;;;;;0.40;0.40;;;18.70;95.40;;;;;;4400404;32;20058;-64
2021/05/09 08:37:32;;;;;;;0.30;0.30;;;18.90;94.50;;;;;;4399193;32;20444;-64
2021/05/09 08:39:58;;;;;;;0.40;0.40;;;18.90;94.20;;;;;;4398834;32;20434;-64
2021/05/09 08:42:24;;;;;;;1.20;0.62;;;19.00;94.20;;;;;;4398173;32;20062;-64
2021/05/09 08:44:53;;;;;;;0.30;0.30;;;19.10;93.80;;;;;;4409450;32;20592;-64
2021/05/09 08:47:22;;;;;;;0.30;0.30;;;19.30;93.90;;;;;;4413156;32;20510;-64
2021/05/09 08:49:49;;;;;;;0.30;0.30;;;19.50;93.20;;;;;;4412041;32;20069;-64
2021/05/09 08:52:22;;;;;;;0.40;0.40;;;19.60;92.80;;;;;;4412997;32;20057;-64
2021/05/09 08:54:48;;;;;;;0.40;0.40;;;19.70;92.70;;;;;;4413765;32;20086;-64
2021/05/09 08:57:14;;;;;;;0.40;0.40;;;19.70;92.20;;;;;;4412610;32;20077;-64
2021/05/09 08:59:39;;;;;;;0.28;0.28;;;19.80;92.80;;;;;;4401101;32;20070;-64
2021/05/09 09:02:05;;;;;;;0.30;0.30;;;20.00;92.10;;;;;;4408283;32;20482;-64
2021/05/09 09:04:55;;;;;;;0.30;0.30;;;20.10;92.00;;;;;;4409523;32;20119;-64
2021/05/09 09:07:21;;;;;;;0.90;0.70;;;20.30;92.20;;;;;;4388165;32;20074;-64
2021/05/09 09:09:48;;;;;;;0.40;0.40;;;20.40;91.50;;;;;;4387418;32;20063;-63
2021/05/09 09:12:15;;;;;;;0.30;0.30;;;20.40;90.50;;;;;;4408164;32;20133;-63
2021/05/09 09:15:01;;;;;;;0.40;0.40;;;20.60;91.60;;;;;;4407214;32;20114;-64
2021/05/09 09:17:26;;;;;;;0.22;0.22;;;20.80;90.70;;;;;;4398737;32;20062;-64
2021/05/09 09:20:16;;;;;;;0.20;0.20;;;21.00;90.20;;;;;;4413036;32;20078;-64
2021/05/09 09:23:01;;;;;;;0.40;0.40;;;21.20;89.40;;;;;;4396850;32;20066;-64
2021/05/09 09:25:29;;;;;;;0.20;0.20;;;21.30;88.50;;;;;;4395083;32;20534;-63
2021/05/09 09:27:55;;;;;;;0.20;0.20;;;21.40;87.30;;;;;;4402511;32;20122;-63
2021/05/09 09:30:23;;;;;;;0.45;0.45;;;21.50;86.20;;;;;;4392956;32;20074;-63
2021/05/09 09:33:12;;;;;;;0.20;0.20;;;21.40;86.10;;;;;;4394169;32;20503;-63
2021/05/09 09:35:38;;;;;;;0.45;0.45;;;21.60;85.80;;;;;;4400025;32;20074;-63
2021/05/09 09:38:28;;;;;;;0.22;0.22;;;21.60;85.70;;;;;;4399581;32;20069;-63
2021/05/09 09:41:20;;;;;;;1.55;0.77;;;21.80;85.40;;;;;;4397473;32;96710;-63
2021/05/09 09:44:01;;;;;;;0.20;0.20;;;22.00;84.10;;;;;;4405149;32;20152;-63
2021/05/09 09:46:30;;;;;;;0.20;0.20;;;22.00;84.60;;;;;;4415423;32;20055;-63
2021/05/09 09:48:56;;;;;;;0.20;0.20;;;22.10;82.70;;;;;;4413045;32;20475;-63
2021/05/09 09:51:22;;;;;;;0.30;0.30;;;22.10;82.60;;;;;;4399908;32;20083;-65
2021/05/09 09:53:48;;;;;;;0.50;0.50;;;22.30;83.10;;;;;;4402150;32;20070;-64
2021/05/09 09:56:18;;;;;;;0.55;0.45;;;22.50;83.10;;;;;;4400992;32;20067;-63
2021/05/09 09:58:46;;;;;;;0.30;0.30;;;22.80;82.70;;;;;;4401525;32;20507;-63
2021/05/09 10:01:14;;;;;;;0.37;0.37;;;23.20;82.40;;;;;;4407622;32;20089;-63
2021/05/09 10:03:40;;;;;;;13.15;0.80;;;23.30;80.50;;;;;;4407383;32;20126;-64
2021/05/09 10:06:06;;;;;;;0.20;0.20;;;23.20;79.40;;;;;;4391884;32;20070;-63
2021/05/09 10:08:33;;;;;;;0.22;0.22;;;23.30;78.80;;;;;;4401040;32;20082;-64
2021/05/09 10:11:01;;;;;;;0.20;0.20;;;23.30;78.90;;;;;;4414415;32;20066;-63
2021/05/09 10:13:27;;;;;;;0.20;0.20;;;23.30;78.80;;;;;;4399627;32;20062;-64
2021/05/09 10:15:53;;;;;;;0.30;0.30;;;23.30;78.70;;;;;;4407331;32;20074;-63
2021/05/09 10:18:20;;;;;;;0.22;0.22;;;23.50;78.00;;;;;;4412144;32;20090;-63
2021/05/09 10:20:46;;;;;;;0.20;0.20;;;23.60;79.00;;;;;;4403009;32;20058;-63
2021/05/09 10:23:12;;;;;;;0.28;0.15;;;24.10;78.40;;;;;;4390589;32;20093;-64
2021/05/09 10:25:55;;;;;;;0.20;0.20;;;24.20;75.60;;;;;;4414322;32;20062;-64
2021/05/09 10:28:39;;;;;;;0.13;0.13;;;23.80;75.20;;;;;;4412623;32;20173;-64
2021/05/09 10:31:06;;;;;;;0.30;0.30;;;23.70;76.00;;;;;;4403097;32;20182;-64
2021/05/09 10:33:42;;;;;;;0.20;0.20;;;23.90;75.40;;;;;;4410698;32;20074;-63
2021/05/09 10:36:17;;;;;;;0.47;0.40;;;24.30;75.00;;;;;;4413988;32;20150;-63
2021/05/09 10:39:11;;;;;;;0.20;0.20;;;24.60;75.00;;;;;;4413984;32;20082;-64
2021/05/09 10:41:58;;;;;;;0.28;0.28;;;24.90;72.40;;;;;;4413760;32;20066;-64
2021/05/09 10:44:46;;;;;;;0.20;0.20;;;24.90;72.00;;;;;;4414961;32;20112;-64
2021/05/09 10:47:36;;;;;;;0.17;0.17;;;25.30;70.70;;;;;;4404943;32;20066;-64
2021/05/09 10:50:24;;;;;;;0.20;0.20;;;25.50;68.90;;;;;;4395615;32;20201;-64
2021/05/09 10:52:51;;;;;;;3.12;0.20;;;25.30;68.10;;;;;;4399470;32;20067;-63
2021/05/09 10:55:38;;;;;;;1.12;0.70;;;25.50;68.70;;;;;;4399618;32;20069;-62
2021/05/09 10:58:08;;;;;;;0.20;0.20;;;25.20;66.60;;;;;;4399014;32;20066;-63
2021/05/09 11:00:56;;;;;;;0.40;0.40;;;25.30;68.00;;;;;;4403182;32;20109;-65
2021/05/09 11:03:40;;;;;;;0.20;0.20;;;25.50;67.60;;;;;;4397959;32;20055;-64
2021/05/09 11:06:11;;;;;;;0.40;0.40;;;26.00;68.20;;;;;;4406712;32;20506;-64
2021/05/09 11:08:58;;;;;;;0.10;0.10;;;26.50;64.80;;;;;;4411557;32;20069;-63
2021/05/09 11:11:27;;;;;;;0.20;0.20;;;26.40;64.10;;;;;;4385731;32;20058;-62
2021/05/09 11:14:04;;;;;;;0.10;0.10;;;26.30;64.70;;;;;;4412914;32;20086;-65
2021/05/09 11:16:33;;;;;;;0.10;0.10;;;26.10;64.40;;;;;;4409071;32;20527;-64
2021/05/09 11:18:59;;;;;;;0.25;0.20;;;26.10;64.40;;;;;;4402726;32;20523;-64
2021/05/09 11:21:28;;;;;;;0.10;0.10;;;26.40;64.00;;;;;;4400893;32;20065;-64
2021/05/09 11:23:53;;;;;;;0.10;0.10;;;26.90;63.30;;;;;;4412787;32;20086;-64
2021/05/09 11:26:23;;;;;;;0.10;0.10;;;27.00;60.30;;;;;;4406070;32;20508;-63
2021/05/09 11:29:10;;;;;;;0.20;0.20;;;26.90;60.30;;;;;;4407340;32;20073;-63
2021/05/09 11:31:37;;;;;;;0.13;0.13;;;26.80;59.70;;;;;;4408258;32;20116;-64
2021/05/09 11:34:03;;;;;;;0.43;0.30;;;27.20;58.90;;;;;;4402597;32;20063;-63
2021/05/09 11:36:31;;;;;;;0.20;0.20;;;27.30;57.90;;;;;;4385648;32;20086;-64
2021/05/09 11:39:16;;;;;;;0.10;0.08;;;27.50;57.20;;;;;;4397967;32;20511;-64
2021/05/09 11:42:04;;;;;;;0.05;0.05;;;27.80;57.30;;;;;;4397794;32;20074;-64
2021/05/09 11:44:56;;;;;;;0.13;0.13;;;28.10;57.00;;;;;;4409611;32;20058;-64
2021/05/09 11:47:27;;;;;;;0.03;0.03;;;27.60;56.40;;;;;;4415169;32;20082;-64
2021/05/09 11:50:06;;;;;;;1.00;0.20;;;27.80;57.60;;;;;;4411109;32;20405;-64
2021/05/09 11:52:35;;;;;;;0.22;0.22;;;28.50;55.30;;;;;;4414125;32;20086;-64
2021/05/09 11:55:02;;;;;;;16.70;0.30;;;28.80;55.10;;;;;;4414165;32;20098;-65
2021/05/09 11:57:29;;;;;;;0.03;0.03;;;29.20;54.90;;;;;;4414289;32;20066;-64
2021/05/09 11:59:59;;;;;;;0.00;0.00;;;28.60;53.50;;;;;;4414107;32;20058;-64
2021/05/09 12:02:27;;;;;;;0.00;0.00;;;28.80;55.70;;;;;;4398263;32;20565;-64
2021/05/09 12:04:56;;;;;;;0.00;0.00;;;29.10;53.50;;;;;;4410277;32;20553;-64
2021/05/09 12:07:24;;;;;;;0.00;0.00;;;29.20;52.60;;;;;;4413628;32;20074;-63
2021/05/09 12:09:53;;;;;;;0.10;0.10;;;29.40;52.60;;;;;;4413054;32;20062;-64
2021/05/09 12:12:20;;;;;;;0.25;0.25;;;30.00;52.30;;;;;;4403178;32;20158;-64
2021/05/09 12:14:47;;;;;;;0.10;0.10;;;30.20;52.60;;;;;;4412135;32;20502;-65
2021/05/09 12:17:28;;;;;;;0.00;0.00;;;30.30;50.30;;;;;;4414151;32;20078;-64
2021/05/09 12:19:55;;;;;;;0.10;0.10;;;29.90;50.30;;;;;;4414234;32;20492;-64
2021/05/09 12:22:21;;;;;;;0.32;0.22;;;29.60;50.60;;;;;;4413449;32;20559;-64
2021/05/09 12:24:50;;;;;;;0.10;0.10;;;29.50;50.70;;;;;;4412495;32;20125;-64
2021/05/09 12:27:16;;;;;;;0.95;0.22;;;29.80;52.30;;;;;;4414008;32;20069;-64
2021/05/09 12:29:46;;;;;;;0.05;0.05;;;30.50;49.50;;;;;;4414343;32;20434;-64
2021/05/09 12:32:23;;;;;;;0.17;0.15;;;30.30;49.10;;;;;;4415341;32;20077;-65
2021/05/09 12:35:10;;;;;;;0.00;0.00;;;30.40;48.90;;;;;;4412962;32;20139;-65
2021/05/09 12:37:57;;;;;;;0.00;0.00;;;31.10;49.10;;;;;;4413042;32;20073;-64
2021/05/09 12:40:25;;;;;;;0.10;0.10;;;31.80;47.50;;;;;;4412547;32;20065;-64
2021/05/09 12:43:08;;;;;;;0.10;0.10;;;31.90;45.10;;;;;;4415040;32;20075;-64
2021/05/09 12:45:39;;;;;;;0.00;0.00;;;31.10;45.70;;;;;;4413467;32;20165;-64
2021/05/09 12:48:07;;;;;;;0.10;0.10;;;31.00;45.80;;;;;;4414174;32;20058;-65
2021/05/09 12:50:50;;;;;;;0.10;0.10;;;31.50;44.60;;;;;;4414283;32;20049;-64